Time;durP1;ratioP1;P1;durP2;ratioP2;P2;SDS_P1;SDS_P2;PMS_P1;PMS_P2;Temp;Humidity;BMP_temperature;BMP_pressure;BME280_temperature;BME280_humidity;BME280_pressure;Samples;Min_cycle;Max_cycle;Signal;HPM_P1;HPM_P2
2023/12/06 00:00:48;;;;;;;67.78;28.27;;;;;;;-146.25;100.00;52686.53;2079407;28;38695;-75
2023/12/06 00:01:52;;;;;;;61.70;27.38;;;;;;;-146.25;100.00;52648.00;2079926;28;34418;-76
2023/12/06 00:02:54;;;;;;;67.15;28.75;;;;;;;-146.25;100.00;52645.97;2080170;28;20139;-75
2023/12/06 00:03:56;;;;;;;64.60;27.73;;;;;;;-146.25;100.00;52686.53;2079883;28;34815;-76
2023/12/06 00:04:57;;;;;;;61.22;26.40;;;;;;;-146.25;100.00;52643.97;2079525;28;34111;-76
2023/12/06 00:06:02;;;;;;;62.22;27.77;;;;;;;-146.25;100.00;52692.63;2079720;28;20796;-76
2023/12/06 00:07:03;;;;;;;63.08;28.13;;;;;;;-146.25;100.00;52652.06;2079058;28;33577;-76
2023/12/06 00:08:05;;;;;;;66.07;28.40;;;;;;;-146.25;100.00;52704.78;2079770;28;35016;-75
2023/12/06 00:09:10;;;;;;;69.40;28.85;;;;;;;-146.25;100.00;52656.13;2080168;28;20034;-77
2023/12/06 00:10:11;;;;;;;65.88;29.33;;;;;;;-146.25;100.00;52688.56;2079645;28;32358;-77
2023/12/06 00:11:13;;;;;;;68.43;28.13;;;;;;;-146.25;100.00;52692.63;2079432;28;33068;-77
2023/12/06 00:12:15;;;;;;;66.15;27.88;;;;;;;-146.25;100.00;52631.78;2080648;28;20093;-76
2023/12/06 00:13:17;;;;;;;66.53;28.85;;;;;;;-146.25;100.00;52700.72;2079519;28;36814;-76
2023/12/06 00:14:21;;;;;;;62.35;28.40;;;;;;;-146.25;100.00;52654.09;2079339;28;38757;-76
2023/12/06 00:15:22;;;;;;;65.75;29.42;;;;;;;-146.25;100.00;52654.09;2079807;28;32720;-76
2023/12/06 00:16:27;;;;;;;69.40;28.60;;;;;;;-146.25;100.00;52686.53;2079578;28;35770;-75
2023/12/06 00:17:28;;;;;;;67.97;29.52;;;;;;;-146.25;100.00;52668.28;2079017;28;38936;-75
2023/12/06 00:18:30;;;;;;;62.17;28.75;;;;;;;-146.25;100.00;52698.72;2080505;28;20034;-76
2023/12/06 00:19:32;;;;;;;68.68;29.15;;;;;;;-146.25;100.00;52672.34;2079045;28;37632;-78
2023/12/06 00:20:34;;;;;;;62.88;28.23;;;;;;;-146.25;100.00;52682.47;2079786;28;30058;-76
2023/12/06 00:21:36;;;;;;;65.35;30.50;;;;;;;-146.25;100.00;52656.13;2079805;28;27667;-76
2023/12/06 00:22:38;;;;;;;69.85;30.73;;;;;;;-146.25;100.00;52652.06;2079111;28;36454;-76
2023/12/06 00:23:39;;;;;;;63.92;30.63;;;;;;;-146.25;100.00;52680.47;2078954;28;33948;-75
2023/12/06 00:24:41;;;;;;;65.25;30.30;;;;;;;-146.25;100.00;52662.22;2079805;28;34817;-76
2023/12/06 00:25:43;;;;;;;69.05;30.80;;;;;;;-146.25;100.00;52637.88;2079281;28;32265;-76
2023/12/06 00:26:46;;;;;;;69.22;31.83;;;;;;;-146.25;100.00;52643.97;2080312;28;20046;-76
2023/12/06 00:27:48;;;;;;;66.07;31.08;;;;;;;-146.25;100.00;52668.28;2079166;28;38132;-76
2023/12/06 00:28:49;;;;;;;67.75;31.70;;;;;;;-146.25;100.00;52670.31;2080165;28;34236;-76
2023/12/06 00:29:51;;;;;;;66.53;31.80;;;;;;;-146.25;100.00;52658.16;2079167;28;34858;-74
2023/12/06 00:30:53;;;;;;;70.75;32.15;;;;;;;-146.25;100.00;52668.28;2079521;28;36034;-76
2023/12/06 00:31:55;;;;;;;68.15;30.52;;;;;;;-146.25;100.00;52650.03;2079676;28;20085;-76
2023/12/06 00:32:57;;;;;;;72.30;32.35;;;;;;;-146.25;100.00;52637.88;2078859;28;37576;-76
2023/12/06 00:33:58;;;;;;;72.53;32.60;;;;;;;-146.25;100.00;52678.44;2078979;28;33956;-76
2023/12/06 00:35:00;;;;;;;65.65;31.38;;;;;;;-146.25;100.00;52706.81;2079537;28;20046;-76
2023/12/06 00:36:02;;;;;;;67.22;31.13;;;;;;;-146.25;100.00;52672.34;2078801;28;38403;-76
2023/12/06 00:37:04;;;;;;;71.85;32.25;;;;;;;-146.25;100.00;52619.63;2079898;28;20038;-75
2023/12/06 00:38:06;;;;;;;72.80;31.98;;;;;;;-146.25;100.00;52635.84;2080123;28;20038;-75
2023/12/06 00:39:08;;;;;;;71.97;32.75;;;;;;;-146.25;100.00;52639.91;2079066;28;35365;-75
2023/12/06 00:40:10;;;;;;;71.90;33.25;;;;;;;-146.25;100.00;52662.22;2079261;28;36609;-76
2023/12/06 00:41:12;;;;;;;73.93;33.22;;;;;;;-146.25;100.00;52670.31;2079119;28;36508;-76
2023/12/06 00:42:14;;;;;;;69.75;31.55;;;;;;;-146.25;100.00;52684.50;2078920;28;37435;-75
2023/12/06 00:43:17;;;;;;;67.18;32.92;;;;;;;-146.25;100.00;52639.91;2078851;28;31202;-76
2023/12/06 00:44:18;;;;;;;73.00;33.90;;;;;;;-146.25;100.00;52627.75;2079171;28;32606;-75
2023/12/06 00:45:20;;;;;;;69.55;32.72;;;;;;;-146.25;100.00;52692.63;2078512;28;37571;-75
2023/12/06 00:46:24;;;;;;;70.97;33.28;;;;;;;-146.25;100.00;52684.50;2080294;28;20057;-75
2023/12/06 00:47:26;;;;;;;66.93;32.53;;;;;;;-146.25;100.00;52631.78;2079528;28;31918;-75
2023/12/06 00:48:28;;;;;;;70.88;32.40;;;;;;;-146.25;100.00;52639.91;2079252;28;34986;-75
2023/12/06 00:49:30;;;;;;;72.53;32.55;;;;;;;-146.25;100.00;52631.78;2079013;28;31316;-75
2023/12/06 00:50:32;;;;;;;72.05;34.97;;;;;;;-146.25;100.00;52635.84;2079206;28;38967;-75
2023/12/06 00:51:34;;;;;;;70.18;33.65;;;;;;;-146.25;100.00;52668.28;2079203;28;36651;-75
2023/12/06 00:52:36;;;;;;;74.65;33.17;;;;;;;-146.25;100.00;52645.97;2079712;28;32001;-75
2023/12/06 00:53:37;;;;;;;73.25;33.60;;;;;;;-146.25;100.00;52656.13;2079243;28;35662;-76
2023/12/06 00:54:41;;;;;;;72.88;33.25;;;;;;;-146.25;100.00;52668.28;2079892;28;35116;-75
2023/12/06 00:55:43;;;;;;;76.85;33.75;;;;;;;-146.25;100.00;52672.34;2079124;28;33170;-75
2023/12/06 00:56:45;;;;;;;75.68;33.78;;;;;;;-146.25;100.00;52684.50;2079586;28;38686;-74
2023/12/06 00:57:47;;;;;;;67.43;32.05;;;;;;;-146.25;100.00;52676.41;2079776;28;20057;-75
2023/12/06 00:58:48;;;;;;;70.63;32.70;;;;;;;-146.25;100.00;52650.03;2079079;28;36773;-75
2023/12/06 00:59:50;;;;;;;74.88;35.00;;;;;;;-146.25;100.00;52641.94;2079179;28;36110;-76
2023/12/06 01:00:52;;;;;;;72.72;33.13;;;;;;;-146.25;100.00;52662.22;2079827;28;25701;-76
2023/12/06 01:01:57;;;;;;;72.13;33.05;;;;;;;-146.25;100.00;52672.34;2079044;28;37667;-75
2023/12/06 01:02:58;;;;;;;69.85;33.42;;;;;;;-146.25;100.00;52676.41;2079828;28;20045;-76
2023/12/06 01:04:00;;;;;;;78.32;35.55;;;;;;;-146.25;100.00;52639.91;2080180;28;37281;-77
2023/12/06 01:05:04;;;;;;;79.00;34.50;;;;;;;-146.25;100.00;52682.47;2080996;28;34562;-77
2023/12/06 01:06:08;;;;;;;75.53;34.75;;;;;;;-146.25;100.00;52676.41;2080269;28;24632;-76
2023/12/06 01:07:13;;;;;;;76.65;33.92;;;;;;;-146.25;100.00;52694.66;2081096;28;20116;-76
2023/12/06 01:08:16;;;;;;;85.85;36.58;;;;;;;-146.25;100.00;52680.47;2081515;28;20109;-76
2023/12/06 01:09:18;;;;;;;75.95;35.33;;;;;;;-146.25;100.00;52662.22;2080496;28;37735;-75
2023/12/06 01:10:23;;;;;;;75.05;33.45;;;;;;;-146.25;100.00;52641.94;2080862;28;32877;-76
2023/12/06 01:11:25;;;;;;;73.57;34.00;;;;;;;-146.25;100.00;52694.66;2080089;28;38415;-75
2023/12/06 01:12:27;;;;;;;81.93;35.97;;;;;;;-146.25;100.00;52660.19;2080191;28;38267;-76
2023/12/06 01:13:28;;;;;;;80.75;36.55;;;;;;;-146.25;100.00;52635.84;2081919;28;20918;-75
2023/12/06 01:14:30;;;;;;;75.22;34.17;;;;;;;-146.25;100.00;52643.97;2080850;28;34507;-76
2023/12/06 01:15:32;;;;;;;77.88;35.33;;;;;;;-146.25;100.00;52656.13;2081027;28;20037;-76
2023/12/06 01:16:37;;;;;;;78.38;34.33;;;;;;;-146.25;100.00;52674.38;2081229;28;20038;-75
2023/12/06 01:17:39;;;;;;;76.88;35.40;;;;;;;-146.25;100.00;52637.88;2080498;28;36630;-75
2023/12/06 01:18:40;;;;;;;82.13;36.78;;;;;;;-146.25;100.00;52666.25;2081521;28;20800;-75
2023/12/06 01:19:42;;;;;;;79.07;35.28;;;;;;;-146.25;100.00;52654.09;2080573;28;37027;-75
2023/12/06 01:20:44;;;;;;;84.88;36.50;;;;;;;-146.25;100.00;52652.06;2080416;28;35645;-75
2023/12/06 01:21:46;;;;;;;77.72;33.63;;;;;;;-146.25;100.00;52674.38;2080213;28;33989;-75
2023/12/06 01:22:48;;;;;;;85.50;36.20;;;;;;;-146.25;100.00;52670.31;2079721;28;37143;-73
2023/12/06 01:23:50;;;;;;;81.55;36.67;;;;;;;-146.25;100.00;52652.06;2081468;28;20791;-73
2023/12/06 01:24:58;;;;;;;79.03;35.83;;;;;;;-146.25;100.00;52619.63;2080525;28;35384;-73
2023/12/06 01:26:00;;;;;;;83.55;36.40;;;;;;;-146.25;100.00;52652.06;2079974;28;38293;-74
2023/12/06 01:27:03;;;;;;;84.10;36.42;;;;;;;-146.25;100.00;52650.03;2080753;28;20126;-74
2023/12/06 01:28:09;;;;;;;87.07;37.05;;;;;;;-146.25;100.00;52668.28;2081533;28;20449;-73
2023/12/06 01:29:11;;;;;;;79.50;35.00;;;;;;;-146.25;100.00;52680.47;2080858;28;35856;-72
2023/12/06 01:30:16;;;;;;;82.47;35.75;;;;;;;-146.25;100.00;52670.31;2080356;28;33334;-74
2023/12/06 01:31:18;;;;;;;79.75;35.13;;;;;;;-146.25;100.00;52658.16;2080466;28;37174;-74
2023/12/06 01:32:20;;;;;;;77.90;34.72;;;;;;;-146.25;100.00;52688.56;2081406;28;20033;-74
2023/12/06 01:33:22;;;;;;;85.63;36.38;;;;;;;-146.25;100.00;52645.97;2080639;28;36879;-74
2023/12/06 01:34:27;;;;;;;82.78;36.08;;;;;;;-146.25;100.00;52670.31;2080257;28;35147;-74
2023/12/06 01:35:28;;;;;;;76.18;33.42;;;;;;;-146.25;100.00;52672.34;2080370;28;32075;-74
2023/12/06 01:36:31;;;;;;;88.03;36.75;;;;;;;-146.25;100.00;52631.78;2080506;28;37525;-74
2023/12/06 01:37:33;;;;;;;81.53;34.90;;;;;;;-146.25;100.00;52648.00;2081175;28;20050;-75
2023/12/06 01:38:35;;;;;;;77.15;35.22;;;;;;;-146.25;100.00;52648.00;2079884;28;35924;-74
2023/12/06 01:39:39;;;;;;;80.13;35.17;;;;;;;-146.25;100.00;52650.03;2080716;28;20050;-75
2023/12/06 01:40:43;;;;;;;77.22;34.47;;;;;;;-146.25;100.00;52688.56;2080784;28;20088;-74
2023/12/06 01:41:48;;;;;;;82.88;35.58;;;;;;;-146.25;100.00;52676.41;2079919;28;34170;-74
2023/12/06 01:42:50;;;;;;;78.88;35.35;;;;;;;-146.25;100.00;52650.03;2079753;28;37031;-74
2023/12/06 01:43:54;;;;;;;80.10;35.28;;;;;;;-146.25;100.00;52672.34;2080431;28;20041;-74
2023/12/06 01:44:56;;;;;;;81.90;35.60;;;;;;;-146.25;100.00;52648.00;2080115;28;37370;-73
2023/12/06 01:46:00;;;;;;;78.63;35.25;;;;;;;-146.25;100.00;52676.41;2080903;28;26262;-74
2023/12/06 01:47:05;;;;;;;78.43;34.22;;;;;;;-146.25;100.00;52654.09;2079657;28;34688;-73
2023/12/06 01:48:08;;;;;;;82.50;35.17;;;;;;;-146.25;100.00;52637.88;2071934;28;37694;-73
2023/12/06 01:49:12;;;;;;;78.38;35.38;;;;;;;-146.25;100.00;52668.28;2072325;28;33545;-73
2023/12/06 01:50:14;;;;;;;79.63;34.92;;;;;;;-146.25;100.00;52656.13;2072159;28;38958;-73
2023/12/06 01:51:19;;;;;;;85.28;35.65;;;;;;;-146.25;100.00;52635.84;2064610;28;20187;-73
2023/12/06 01:52:21;;;;;;;76.72;34.85;;;;;;;-146.25;100.00;52639.91;2064750;28;34117;-74
2023/12/06 01:53:23;;;;;;;79.38;34.72;;;;;;;-146.25;100.00;52656.13;2079751;28;38582;-73
2023/12/06 01:54:26;;;;;;;81.20;34.63;;;;;;;-146.25;100.00;52658.16;2079898;28;36893;-72
2023/12/06 01:55:33;;;;;;;81.47;35.17;;;;;;;-146.25;100.00;52672.34;2079431;28;36854;-74
2023/12/06 01:56:37;;;;;;;80.97;34.83;;;;;;;-146.25;100.00;52615.56;2081439;28;20096;-74
2023/12/06 01:57:41;;;;;;;81.28;34.85;;;;;;;-146.25;100.00;52656.13;2080252;28;39327;-74
2023/12/06 01:58:43;;;;;;;79.00;34.95;;;;;;;-146.25;100.00;52648.00;2079661;28;38386;-74
2023/12/06 01:59:47;;;;;;;80.35;34.55;;;;;;;-146.25;100.00;52654.09;2080566;28;20041;-73
2023/12/06 02:00:52;;;;;;;83.38;35.40;;;;;;;-146.25;100.00;52645.97;2079424;28;37857;-73
2023/12/06 02:01:54;;;;;;;77.20;34.63;;;;;;;-146.25;100.00;52678.44;2079477;28;35097;-73
2023/12/06 02:02:55;;;;;;;72.38;33.25;;;;;;;-146.25;100.00;52680.47;2081386;28;20038;-73
2023/12/06 02:03:58;;;;;;;79.65;35.30;;;;;;;-146.25;100.00;52654.09;2080234;28;37486;-73
2023/12/06 02:05:01;;;;;;;72.72;34.03;;;;;;;-146.25;100.00;52656.13;2080929;28;22488;-72
2023/12/06 02:06:07;;;;;;;79.90;34.47;;;;;;;-146.25;100.00;52674.38;2080285;28;34245;-73
2023/12/06 02:07:10;;;;;;;74.53;34.17;;;;;;;-146.25;100.00;52706.81;2079924;28;36075;-73
2023/12/06 02:08:14;;;;;;;78.20;33.90;;;;;;;-146.25;100.00;52619.63;2063263;28;38010;-72
2023/12/06 02:09:16;;;;;;;78.00;33.40;;;;;;;-146.25;100.00;52645.97;2072171;28;35155;-72
2023/12/06 02:10:17;;;;;;;76.47;33.70;;;;;;;-146.25;100.00;52672.34;2079872;28;32763;-72
2023/12/06 02:11:19;;;;;;;82.22;34.50;;;;;;;-146.25;100.00;52652.06;2080212;28;20153;-72
2023/12/06 02:12:21;;;;;;;78.70;35.05;;;;;;;-146.25;100.00;52635.84;2080253;28;38114;-72
2023/12/06 02:13:23;;;;;;;84.80;35.92;;;;;;;-146.25;100.00;52686.53;2079981;28;34380;-73
2023/12/06 02:14:25;;;;;;;79.60;34.10;;;;;;;-146.25;100.00;52666.25;2079880;28;31060;-73
2023/12/06 02:15:26;;;;;;;75.22;33.85;;;;;;;-146.25;100.00;52672.34;2079098;28;35643;-72
2023/12/06 02:16:31;;;;;;;77.40;33.50;;;;;;;-146.25;100.00;52650.03;2079447;28;35063;-73
2023/12/06 02:17:33;;;;;;;76.18;33.60;;;;;;;-146.25;100.00;52692.63;2079821;28;32120;-72
2023/12/06 02:18:35;;;;;;;75.18;33.35;;;;;;;-146.25;100.00;52643.97;2079319;28;32929;-72
2023/12/06 02:19:39;;;;;;;75.57;33.95;;;;;;;-146.25;100.00;52662.22;2080130;28;20861;-72
2023/12/06 02:20:41;;;;;;;71.35;32.15;;;;;;;-146.25;100.00;52660.19;2080139;28;31129;-71
2023/12/06 02:21:46;;;;;;;78.13;33.85;;;;;;;-146.25;100.00;52648.00;2080097;28;28891;-72
2023/12/06 02:22:53;;;;;;;70.57;32.78;;;;;;;-146.25;100.00;52674.38;2080056;28;31395;-72
2023/12/06 02:23:59;;;;;;;77.55;33.92;;;;;;;-146.25;100.00;52652.06;2079722;28;35401;-72
2023/12/06 02:25:03;;;;;;;74.50;31.70;;;;;;;-146.25;100.00;52678.44;2079811;28;31580;-72
2023/12/06 02:26:05;;;;;;;74.82;32.15;;;;;;;-146.25;100.00;52643.97;2079628;28;36036;-72
2023/12/06 02:27:07;;;;;;;75.22;33.17;;;;;;;-146.25;100.00;52645.97;2079491;28;35173;-71
2023/12/06 02:28:09;;;;;;;78.55;34.05;;;;;;;-146.25;100.00;52639.91;2080995;28;20042;-71
2023/12/06 02:29:13;;;;;;;73.28;33.47;;;;;;;-146.25;100.00;52674.38;2079612;28;33659;-70
2023/12/06 02:30:17;;;;;;;79.68;33.92;;;;;;;-146.25;100.00;52664.22;2079388;28;35631;-72
2023/12/06 02:31:19;;;;;;;75.70;32.80;;;;;;;-146.25;100.00;52680.47;2080887;28;20839;-71
2023/12/06 02:32:21;;;;;;;77.75;34.20;;;;;;;-146.25;100.00;52692.63;2080502;28;35578;-72
2023/12/06 02:33:24;;;;;;;74.18;33.05;;;;;;;-146.25;100.00;52686.53;2080333;28;29507;-72
2023/12/06 02:34:30;;;;;;;76.50;33.22;;;;;;;-146.25;100.00;52643.97;2080500;28;32011;-71
2023/12/06 02:35:45;;;;;;;74.80;33.58;;;;;;;-146.25;100.00;52692.63;2079184;28;36492;-72
2023/12/06 02:36:51;;;;;;;71.80;32.85;;;;;;;-146.25;100.00;52648.00;2080577;28;20088;-71
2023/12/06 02:37:57;;;;;;;76.63;33.00;;;;;;;-146.25;100.00;52660.19;2079724;28;32735;-72
2023/12/06 02:38:59;;;;;;;72.10;32.08;;;;;;;-146.25;100.00;52641.94;2079953;28;36515;-72
2023/12/06 02:40:04;;;;;;;70.70;32.08;;;;;;;-146.25;100.00;52643.97;2079938;28;20034;-72
2023/12/06 02:41:07;;;;;;;76.75;33.65;;;;;;;-146.25;100.00;52678.44;2071258;28;37346;-72
2023/12/06 02:42:09;;;;;;;71.10;33.85;;;;;;;-146.25;100.00;52652.06;2071261;28;32550;-71
2023/12/06 02:43:15;;;;;;;73.07;32.70;;;;;;;-146.25;100.00;52643.97;2071903;28;33328;-72
2023/12/06 02:44:17;;;;;;;71.28;32.47;;;;;;;-146.25;100.00;52662.22;2071309;28;37152;-72
2023/12/06 02:45:19;;;;;;;69.55;32.78;;;;;;;-146.25;100.00;52645.97;2072336;28;20958;-71
2023/12/06 02:46:21;;;;;;;71.68;32.65;;;;;;;-146.25;100.00;52690.59;2071955;28;33904;-72
2023/12/06 02:47:24;;;;;;;78.38;34.38;;;;;;;-146.25;100.00;52672.34;2071893;28;34231;-71
2023/12/06 02:48:26;;;;;;;76.85;32.45;;;;;;;-146.25;100.00;52660.19;2072843;28;20132;-72
2023/12/06 02:49:28;;;;;;;77.50;32.88;;;;;;;-146.25;100.00;52645.97;2071384;28;34638;-71
2023/12/06 02:50:30;;;;;;;72.68;32.17;;;;;;;-146.25;100.00;52676.41;2071541;28;34290;-71
2023/12/06 02:51:31;;;;;;;76.70;32.35;;;;;;;-146.25;100.00;52680.47;2072670;28;20988;-71
2023/12/06 02:52:35;;;;;;;70.45;31.35;;;;;;;-146.25;100.00;52639.91;2071797;28;30704;-72
2023/12/06 02:53:37;;;;;;;73.43;32.80;;;;;;;-146.25;100.00;52645.97;2071966;28;32426;-71
2023/12/06 02:54:39;;;;;;;72.10;33.33;;;;;;;-146.25;100.00;52654.09;2073032;28;20046;-71
2023/12/06 02:55:41;;;;;;;73.40;33.42;;;;;;;-146.25;100.00;52619.63;2071501;28;33270;-71
2023/12/06 02:56:43;;;;;;;74.05;32.70;;;;;;;-146.25;100.00;52654.09;2073207;28;30656;-71
2023/12/06 02:57:48;;;;;;;76.28;32.88;;;;;;;-146.25;100.00;52648.00;2080666;28;20034;-71
2023/12/06 02:58:49;;;;;;;73.82;32.10;;;;;;;-146.25;100.00;52645.97;2079885;28;35068;-71
2023/12/06 02:59:51;;;;;;;69.28;32.83;;;;;;;-146.25;100.00;52652.06;2079438;28;34956;-71
2023/12/06 03:00:53;;;;;;;72.00;33.08;;;;;;;-146.25;100.00;52648.00;2078441;28;33441;-71
2023/12/06 03:01:55;;;;;;;72.93;33.70;;;;;;;-146.25;100.00;52660.19;2079734;28;38565;-70
2023/12/06 03:02:56;;;;;;;82.90;34.42;;;;;;;-146.25;100.00;52684.50;2080078;28;34095;-71
2023/12/06 03:03:58;;;;;;;75.78;33.08;;;;;;;-146.25;100.00;52674.38;2080388;28;20041;-70
2023/12/06 03:05:02;;;;;;;75.28;34.58;;;;;;;-146.25;100.00;52627.75;2079830;28;36217;-70
2023/12/06 03:06:04;;;;;;;79.75;32.55;;;;;;;-146.25;100.00;52621.66;2080012;28;34660;-71
2023/12/06 03:07:06;;;;;;;76.72;33.08;;;;;;;-146.25;100.00;52668.28;2080179;28;30637;-70
2023/12/06 03:08:08;;;;;;;73.65;34.55;;;;;;;-146.25;100.00;52643.97;2080054;28;36907;-70
2023/12/06 03:09:10;;;;;;;75.35;34.63;;;;;;;-146.25;100.00;52654.09;2080300;28;20042;-71
2023/12/06 03:10:12;;;;;;;71.05;33.03;;;;;;;-146.25;100.00;52654.09;2080409;28;24304;-71
2023/12/06 03:11:14;;;;;;;73.13;32.30;;;;;;;-146.25;100.00;52637.88;2079672;28;36260;-71
2023/12/06 03:12:15;;;;;;;76.53;34.25;;;;;;;-146.25;100.00;52662.22;2079441;28;33099;-70
2023/12/06 03:13:17;;;;;;;78.22;33.58;;;;;;;-146.25;100.00;52700.72;2079207;28;37097;-70
2023/12/06 03:14:19;;;;;;;75.85;33.10;;;;;;;-146.25;100.00;52696.69;2079957;28;35987;-70
2023/12/06 03:15:20;;;;;;;74.53;32.90;;;;;;;-146.25;100.00;52650.03;2079386;28;33935;-70
2023/12/06 03:16:22;;;;;;;66.50;32.05;;;;;;;-146.25;100.00;52686.53;2080081;28;37637;-70
2023/12/06 03:17:24;;;;;;;79.93;34.38;;;;;;;-146.25;100.00;52672.34;2080606;28;20034;-70
2023/12/06 03:18:27;;;;;;;77.63;34.15;;;;;;;-146.25;100.00;52680.47;2080078;28;36103;-69
2023/12/06 03:19:28;;;;;;;77.72;33.63;;;;;;;-146.25;100.00;52639.91;2079609;28;32981;-70
2023/12/06 03:20:30;;;;;;;77.32;33.95;;;;;;;-146.25;100.00;52619.63;2086979;28;30967;-70
2023/12/06 03:21:35;;;;;;;75.40;33.35;;;;;;;-146.25;100.00;52662.22;2086853;28;36564;-70
2023/12/06 03:22:37;;;;;;;78.13;33.60;;;;;;;-146.25;100.00;52660.19;2087417;28;30247;-70
2023/12/06 03:23:38;;;;;;;76.00;34.53;;;;;;;-146.25;100.00;52676.41;2087395;28;20046;-70
2023/12/06 03:24:40;;;;;;;69.28;32.75;;;;;;;-146.25;100.00;52645.97;2079723;28;37641;-70
2023/12/06 03:25:42;;;;;;;73.60;33.28;;;;;;;-146.25;100.00;52664.22;2079690;28;36039;-69
2023/12/06 03:26:44;;;;;;;79.65;35.58;;;;;;;-146.25;100.00;52670.31;2079598;28;35120;-70
2023/12/06 03:27:45;;;;;;;74.57;34.70;;;;;;;-146.25;100.00;52652.06;2080662;28;20038;-70
2023/12/06 03:28:50;;;;;;;77.72;34.92;;;;;;;-146.25;100.00;52635.84;2079365;28;35843;-70
2023/12/06 03:29:52;;;;;;;75.85;35.08;;;;;;;-146.25;100.00;52666.25;2079643;28;20053;-70
2023/12/06 03:30:54;;;;;;;79.88;34.97;;;;;;;-146.25;100.00;52652.06;2079802;28;33696;-70
2023/12/06 03:31:56;;;;;;;74.65;34.17;;;;;;;-146.25;100.00;52680.47;2079541;28;36400;-70
2023/12/06 03:32:57;;;;;;;82.15;34.17;;;;;;;-146.25;100.00;52670.31;2080115;28;34651;-70
2023/12/06 03:34:02;;;;;;;84.75;35.90;;;;;;;-146.25;100.00;52660.19;2079654;28;36536;-71
2023/12/06 03:35:05;;;;;;;79.75;34.50;;;;;;;-146.25;100.00;52643.97;2079681;28;33555;-70
2023/12/06 03:36:11;;;;;;;81.57;37.40;;;;;;;-146.25;100.00;52672.34;2079583;28;31827;-71
2023/12/06 03:37:13;;;;;;;81.13;36.25;;;;;;;-146.25;100.00;52643.97;2079090;28;35988;-70
2023/12/06 03:38:15;;;;;;;86.60;37.50;;;;;;;-146.25;100.00;52658.16;2079142;28;20045;-70
2023/12/06 03:39:19;;;;;;;83.05;35.55;;;;;;;-146.25;100.00;52643.97;2079710;28;38050;-71
2023/12/06 03:40:21;;;;;;;78.95;34.17;;;;;;;-146.25;100.00;52656.13;2079129;28;37236;-70
2023/12/06 03:41:25;;;;;;;83.63;36.15;;;;;;;-146.25;100.00;52648.00;2079489;28;31520;-70
2023/12/06 03:42:27;;;;;;;80.20;35.83;;;;;;;-146.25;100.00;52676.41;2079486;28;36198;-70
2023/12/06 03:43:28;;;;;;;77.43;35.30;;;;;;;-146.25;100.00;52670.31;2080435;28;20176;-70
2023/12/06 03:44:30;;;;;;;79.82;35.05;;;;;;;-146.25;100.00;52682.47;2079334;28;36369;-71
2023/12/06 03:45:32;;;;;;;86.40;36.83;;;;;;;-146.25;100.00;52656.13;2079096;28;31071;-70
2023/12/06 03:46:36;;;;;;;85.97;38.50;;;;;;;-146.25;100.00;52660.19;2078771;28;32222;-70
2023/12/06 03:47:38;;;;;;;82.28;37.13;;;;;;;-146.25;100.00;52688.56;2078994;28;35868;-70
2023/12/06 03:48:40;;;;;;;88.05;36.40;;;;;;;-146.25;100.00;52670.31;2079563;28;21267;-71
2023/12/06 03:49:42;;;;;;;83.10;35.90;;;;;;;-146.25;100.00;52662.22;2080130;28;37736;-71
2023/12/06 03:50:44;;;;;;;86.47;36.58;;;;;;;-146.25;100.00;52668.28;2078988;28;35190;-70
2023/12/06 03:51:46;;;;;;;84.47;36.15;;;;;;;-146.25;100.00;52658.16;2079995;28;20164;-70
2023/12/06 03:52:48;;;;;;;83.18;36.65;;;;;;;-146.25;100.00;52668.28;2079485;28;36773;-70
2023/12/06 03:53:50;;;;;;;80.95;34.40;;;;;;;-146.25;100.00;52639.91;2080465;28;20041;-69
2023/12/06 03:54:52;;;;;;;75.20;35.85;;;;;;;-146.25;100.00;52656.13;2079586;28;35206;-70
2023/12/06 03:55:55;;;;;;;79.70;35.92;;;;;;;-146.25;100.00;52641.94;2080269;28;23980;-70
2023/12/06 03:56:57;;;;;;;83.07;36.00;;;;;;;-146.25;100.00;52700.72;2079601;28;32320;-70
2023/12/06 03:57:58;;;;;;;83.30;36.05;;;;;;;-146.25;100.00;52652.06;2079548;28;36955;-70
2023/12/06 03:59:00;;;;;;;84.47;37.22;;;;;;;-146.25;100.00;52645.97;2079016;28;35523;-70
2023/12/06 04:00:04;;;;;;;78.00;35.55;;;;;;;-146.25;100.00;52643.97;2080062;28;26668;-70
2023/12/06 04:01:12;;;;;;;81.60;35.83;;;;;;;-146.25;100.00;52643.97;2079097;28;20057;-70
2023/12/06 04:02:14;;;;;;;80.70;36.53;;;;;;;-146.25;100.00;52674.38;2080412;28;20037;-70
2023/12/06 04:03:16;;;;;;;88.68;37.38;;;;;;;-146.25;100.00;52706.81;2079046;28;38337;-70
2023/12/06 04:04:18;;;;;;;87.97;38.78;;;;;;;-146.25;100.00;52688.56;2071087;28;35269;-70
2023/12/06 04:05:20;;;;;;;85.00;38.50;;;;;;;-146.25;100.00;52710.88;2078530;28;33250;-70
2023/12/06 04:06:21;;;;;;;76.57;35.50;;;;;;;-146.25;100.00;52652.06;2079254;28;33662;-70
2023/12/06 04:07:23;;;;;;;86.50;38.55;;;;;;;-146.25;100.00;52652.06;2079824;28;20608;-70
2023/12/06 04:08:25;;;;;;;84.40;37.80;;;;;;;-146.25;100.00;52672.34;2079371;28;37997;-70
2023/12/06 04:09:27;;;;;;;81.57;37.70;;;;;;;-146.25;100.00;52696.69;2079586;28;32624;-69
2023/12/06 04:10:31;;;;;;;84.82;38.85;;;;;;;-146.25;100.00;52680.47;2079726;28;32812;-70
2023/12/06 04:11:33;;;;;;;88.45;38.45;;;;;;;-146.25;100.00;52684.50;2079559;28;36841;-70
2023/12/06 04:12:35;;;;;;;85.43;37.08;;;;;;;-146.25;100.00;52672.34;2080061;28;20038;-70
2023/12/06 04:13:37;;;;;;;86.32;37.65;;;;;;;-146.25;100.00;52645.97;2079467;28;35154;-70
2023/12/06 04:14:39;;;;;;;84.35;37.78;;;;;;;-146.25;100.00;52643.97;2079499;28;36272;-70
2023/12/06 04:15:40;;;;;;;85.07;39.03;;;;;;;-146.25;100.00;52650.03;2079450;28;33775;-69
2023/12/06 04:16:42;;;;;;;77.93;35.25;;;;;;;-146.25;100.00;52684.50;2079945;28;36787;-70
2023/12/06 04:17:44;;;;;;;86.88;39.50;;;;;;;-146.25;100.00;52625.72;2080215;28;20132;-69
2023/12/06 04:18:46;;;;;;;87.47;38.38;;;;;;;-146.25;100.00;52660.19;2079911;28;32617;-68
2023/12/06 04:19:51;;;;;;;88.38;38.88;;;;;;;-146.25;100.00;52676.41;2078673;28;36229;-70
2023/12/06 04:20:55;;;;;;;86.47;38.47;;;;;;;-146.25;100.00;52652.06;2071658;28;34876;-70
2023/12/06 04:21:57;;;;;;;85.75;37.95;;;;;;;-146.25;100.00;52668.28;2078851;28;35250;-69
2023/12/06 04:22:59;;;;;;;81.07;37.30;;;;;;;-146.25;100.00;52690.59;2079499;28;38430;-70
2023/12/06 04:24:00;;;;;;;76.13;35.63;;;;;;;-146.25;100.00;52692.63;2079044;28;29378;-70
2023/12/06 04:25:02;;;;;;;83.30;37.65;;;;;;;-146.25;100.00;52656.13;2079665;28;33305;-70
2023/12/06 04:26:05;;;;;;;89.38;39.30;;;;;;;-146.25;100.00;52678.44;2079682;28;20050;-70
2023/12/06 04:27:07;;;;;;;83.13;38.50;;;;;;;-146.25;100.00;52688.56;2079693;28;33878;-69
2023/12/06 04:28:09;;;;;;;85.55;38.42;;;;;;;-146.25;100.00;52635.84;2079054;28;39193;-70
2023/12/06 04:29:11;;;;;;;85.20;38.45;;;;;;;-146.25;100.00;52639.91;2079852;28;33987;-70
2023/12/06 04:30:14;;;;;;;86.90;38.88;;;;;;;-146.25;100.00;52650.03;2079301;28;34596;-70
2023/12/06 04:31:16;;;;;;;86.18;39.63;;;;;;;-146.25;100.00;52635.84;2079272;28;37700;-70
2023/12/06 04:32:20;;;;;;;84.28;37.38;;;;;;;-146.25;100.00;52666.25;2079505;28;31466;-70
2023/12/06 04:33:23;;;;;;;84.85;38.35;;;;;;;-146.25;100.00;52662.22;2079725;28;31842;-70
2023/12/06 04:34:25;;;;;;;85.55;38.42;;;;;;;-146.25;100.00;52625.72;2079925;28;33325;-70
2023/12/06 04:35:27;;;;;;;79.82;39.78;;;;;;;-146.25;100.00;52672.34;2079599;28;37426;-69
2023/12/06 04:36:31;;;;;;;80.80;38.00;;;;;;;-146.25;100.00;52696.69;2079366;28;35756;-70
2023/12/06 04:37:33;;;;;;;83.55;37.88;;;;;;;-146.25;100.00;52676.41;2079526;28;34075;-70
2023/12/06 04:38:34;;;;;;;75.97;36.85;;;;;;;-146.25;100.00;52660.19;2079520;28;34559;-70